sensor_id;sensor_type;location;lat;lon;timestamp;temperature;humidity
69382;DHT22;56560;50.692;12.844;2023-06-05T05:06:25;10.50;65.00
69382;DHT22;56560;50.692;12.844;2023-06-05T05:08:51;10.90;63.20
69382;DHT22;56560;50.692;12.844;2023-06-05T05:11:19;11.30;61.40
69382;DHT22;56560;50.692;12.844;2023-06-05T05:13:46;11.60;59.90
69382;DHT22;56560;50.692;12.844;2023-06-05T05:16:11;12.00;59.60
69382;DHT22;56560;50.692;12.844;2023-06-05T05:18:40;12.40;59.00
69382;DHT22;56560;50.692;12.844;2023-06-05T05:21:06;12.70;58.30
69382;DHT22;56560;50.692;12.844;2023-06-05T05:23:32;13.00;58.10
69382;DHT22;56560;50.692;12.844;2023-06-05T05:25:59;13.30;57.60
69382;DHT22;56560;50.692;12.844;2023-06-05T05:28:25;13.60;57.40
69382;DHT22;56560;50.692;12.844;2023-06-05T05:30:51;13.90;56.70
69382;DHT22;56560;50.692;12.844;2023-06-05T05:33:17;14.10;56.70
69382;DHT22;56560;50.692;12.844;2023-06-05T05:35:44;14.40;56.70
69382;DHT22;56560;50.692;12.844;2023-06-05T05:38:10;14.70;54.70
69382;DHT22;56560;50.692;12.844;2023-06-05T05:40:36;14.90;54.90
69382;DHT22;56560;50.692;12.844;2023-06-05T05:43:02;15.10;53.70
69382;DHT22;56560;50.692;12.844;2023-06-05T05:45:27;15.10;52.10
69382;DHT22;56560;50.692;12.844;2023-06-05T05:47:53;15.20;52.40
69382;DHT22;56560;50.692;12.844;2023-06-05T05:50:20;15.40;50.60
69382;DHT22;56560;50.692;12.844;2023-06-05T05:52:45;15.60;52.30
69382;DHT22;56560;50.692;12.844;2023-06-05T05:55:13;15.80;51.80
69382;DHT22;56560;50.692;12.844;2023-06-05T05:57:38;16.00;52.00
69382;DHT22;56560;50.692;12.844;2023-06-05T06:00:04;16.20;51.20
69382;DHT22;56560;50.692;12.844;2023-06-05T06:02:34;16.40;50.90
69382;DHT22;56560;50.692;12.844;2023-06-05T06:05:00;16.60;50.70
69382;DHT22;56560;50.692;12.844;2023-06-05T06:07:30;16.70;50.30
69382;DHT22;56560;50.692;12.844;2023-06-05T06:09:56;16.70;49.70
69382;DHT22;56560;50.692;12.844;2023-06-05T06:12:22;16.70;49.10
69382;DHT22;56560;50.692;12.844;2023-06-05T06:14:48;16.50;50.70
69382;DHT22;56560;50.692;12.844;2023-06-05T06:17:14;16.40;51.10
69382;DHT22;56560;50.692;12.844;2023-06-05T06:19:40;16.70;52.20
69382;DHT22;56560;50.692;12.844;2023-06-05T06:22:06;17.10;52.60
69382;DHT22;56560;50.692;12.844;2023-06-05T06:24:42;17.50;51.10
69382;DHT22;56560;50.692;12.844;2023-06-05T06:27:11;18.00;50.40
69382;DHT22;56560;50.692;12.844;2023-06-05T06:29:48;18.30;48.70
69382;DHT22;56560;50.692;12.844;2023-06-05T06:32:15;18.40;47.40
69382;DHT22;56560;50.692;12.844;2023-06-05T06:34:41;18.60;47.30
69382;DHT22;56560;50.692;12.844;2023-06-05T06:37:13;18.70;47.40
69382;DHT22;56560;50.692;12.844;2023-06-05T06:39:41;18.90;46.80
69382;DHT22;56560;50.692;12.844;2023-06-05T06:42:07;18.80;47.70
69382;DHT22;56560;50.692;12.844;2023-06-05T06:44:35;18.80;47.30
69382;DHT22;56560;50.692;12.844;2023-06-05T06:47:01;18.90;46.70
69382;DHT22;56560;50.692;12.844;2023-06-05T06:49:26;19.00;46.50
69382;DHT22;56560;50.692;12.844;2023-06-05T06:51:53;19.00;46.30
69382;DHT22;56560;50.692;12.844;2023-06-05T06:54:18;19.10;46.50
69382;DHT22;56560;50.692;12.844;2023-06-05T06:56:44;19.10;47.00
69382;DHT22;56560;50.692;12.844;2023-06-05T06:59:14;19.30;47.20
69382;DHT22;56560;50.692;12.844;2023-06-05T07:01:45;19.60;46.30
69382;DHT22;56560;50.692;12.844;2023-06-05T07:04:15;19.80;46.50
69382;DHT22;56560;50.692;12.844;2023-06-05T07:06:46;20.10;45.40
69382;DHT22;56560;50.692;12.844;2023-06-05T07:09:12;20.20;45.70
69382;DHT22;56560;50.692;12.844;2023-06-05T07:11:38;20.20;45.20
69382;DHT22;56560;50.692;12.844;2023-06-05T07:14:03;20.20;45.10
69382;DHT22;56560;50.692;12.844;2023-06-05T07:16:29;20.00;45.90
69382;DHT22;56560;50.692;12.844;2023-06-05T07:18:55;19.80;46.00
69382;DHT22;56560;50.692;12.844;2023-06-05T07:21:21;19.70;46.70
69382;DHT22;56560;50.692;12.844;2023-06-05T07:23:48;19.70;47.10
69382;DHT22;56560;50.692;12.844;2023-06-05T07:26:17;19.80;47.10
69382;DHT22;56560;50.692;12.844;2023-06-05T07:28:43;20.20;46.20
69382;DHT22;56560;50.692;12.844;2023-06-05T07:31:09;20.60;45.90
69382;DHT22;56560;50.692;12.844;2023-06-05T07:33:35;21.10;45.20
69382;DHT22;56560;50.692;12.844;2023-06-05T07:36:01;21.40;43.80
69382;DHT22;56560;50.692;12.844;2023-06-05T07:38:27;21.50;43.30
69382;DHT22;56560;50.692;12.844;2023-06-05T07:40:55;21.30;43.10
69382;DHT22;56560;50.692;12.844;2023-06-05T07:43:24;21.20;44.10
69382;DHT22;56560;50.692;12.844;2023-06-05T07:45:49;21.40;44.00
69382;DHT22;56560;50.692;12.844;2023-06-05T07:48:15;21.60;43.70
69382;DHT22;56560;50.692;12.844;2023-06-05T07:50:41;21.80;43.20
69382;DHT22;56560;50.692;12.844;2023-06-05T07:53:06;21.80;43.30
69382;DHT22;56560;50.692;12.844;2023-06-05T07:55:32;21.70;43.70
69382;DHT22;56560;50.692;12.844;2023-06-05T07:57:58;21.60;43.50
69382;DHT22;56560;50.692;12.844;2023-06-05T08:00:26;21.80;44.20
69382;DHT22;56560;50.692;12.844;2023-06-05T08:02:53;22.10;43.80
69382;DHT22;56560;50.692;12.844;2023-06-05T08:05:19;22.30;42.80
69382;DHT22;56560;50.692;12.844;2023-06-05T08:07:45;22.50;43.20
69382;DHT22;56560;50.692;12.844;2023-06-05T08:10:11;22.90;43.20
69382;DHT22;56560;50.692;12.844;2023-06-05T08:12:37;23.00;42.90
69382;DHT22;56560;50.692;12.844;2023-06-05T08:15:03;23.10;42.80
69382;DHT22;56560;50.692;12.844;2023-06-05T08:17:28;23.50;43.70
69382;DHT22;56560;50.692;12.844;2023-06-05T08:19:54;23.80;41.70
69382;DHT22;56560;50.692;12.844;2023-06-05T08:22:20;24.10;41.50
69382;DHT22;56560;50.692;12.844;2023-06-05T08:24:46;24.50;40.80
69382;DHT22;56560;50.692;12.844;2023-06-05T08:27:13;24.60;41.00
69382;DHT22;56560;50.692;12.844;2023-06-05T08:29:39;24.60;40.90
69382;DHT22;56560;50.692;12.844;2023-06-05T08:32:05;24.60;41.00
69382;DHT22;56560;50.692;12.844;2023-06-05T08:34:31;24.40;41.20
69382;DHT22;56560;50.692;12.844;2023-06-05T08:36:57;24.40;40.90
69382;DHT22;56560;50.692;12.844;2023-06-05T08:39:26;24.50;40.80
69382;DHT22;56560;50.692;12.844;2023-06-05T08:41:57;24.80;40.90
69382;DHT22;56560;50.692;12.844;2023-06-05T08:44:27;25.50;40.50
69382;DHT22;56560;50.692;12.844;2023-06-05T08:47:00;26.00;38.90
69382;DHT22;56560;50.692;12.844;2023-06-05T08:49:27;26.50;38.50
69382;DHT22;56560;50.692;12.844;2023-06-05T08:52:00;27.10;37.90
69382;DHT22;56560;50.692;12.844;2023-06-05T08:54:32;27.40;36.10
69382;DHT22;56560;50.692;12.844;2023-06-05T08:57:06;27.40;37.40
69382;DHT22;56560;50.692;12.844;2023-06-05T08:59:33;27.30;36.10
69382;DHT22;56560;50.692;12.844;2023-06-05T09:01:59;26.70;37.20
69382;DHT22;56560;50.692;12.844;2023-06-05T09:04:25;26.20;37.90
69382;DHT22;56560;50.692;12.844;2023-06-05T09:06:55;26.20;37.50
69382;DHT22;56560;50.692;12.844;2023-06-05T09:09:22;26.30;37.30
69382;DHT22;56560;50.692;12.844;2023-06-05T09:12:04;26.70;37.60
69382;DHT22;56560;50.692;12.844;2023-06-05T09:14:31;26.80;36.50
69382;DHT22;56560;50.692;12.844;2023-06-05T09:16:57;26.40;36.40
69382;DHT22;56560;50.692;12.844;2023-06-05T09:19:23;25.70;36.80
69382;DHT22;56560;50.692;12.844;2023-06-05T09:21:54;25.50;38.00
69382;DHT22;56560;50.692;12.844;2023-06-05T09:24:22;25.30;38.60
69382;DHT22;56560;50.692;12.844;2023-06-05T09:29:35;25.90;38.80
69382;DHT22;56560;50.692;12.844;2023-06-05T09:32:23;26.00;38.40
69382;DHT22;56560;50.692;12.844;2023-06-05T09:34:56;25.90;37.60
69382;DHT22;56560;50.692;12.844;2023-06-05T09:37:36;25.70;38.20
69382;DHT22;56560;50.692;12.844;2023-06-05T09:40:02;25.80;38.30
69382;DHT22;56560;50.692;12.844;2023-06-05T09:42:34;26.30;37.80
69382;DHT22;56560;50.692;12.844;2023-06-05T09:45:01;26.50;37.70
69382;DHT22;56560;50.692;12.844;2023-06-05T09:47:27;26.20;37.40
69382;DHT22;56560;50.692;12.844;2023-06-05T09:49:52;25.90;37.70
69382;DHT22;56560;50.692;12.844;2023-06-05T09:52:19;25.60;37.80
69382;DHT22;56560;50.692;12.844;2023-06-05T09:54:45;25.50;37.20
69382;DHT22;56560;50.692;12.844;2023-06-05T09:57:13;25.60;38.30
69382;DHT22;56560;50.692;12.844;2023-06-05T09:59:50;25.30;36.70
69382;DHT22;56560;50.692;12.844;2023-06-05T10:02:25;25.20;36.40
69382;DHT22;56560;50.692;12.844;2023-06-05T10:05:04;25.70;36.10
69382;DHT22;56560;50.692;12.844;2023-06-05T10:07:36;26.10;36.40
69382;DHT22;56560;50.692;12.844;2023-06-05T10:10:03;26.40;35.60
69382;DHT22;56560;50.692;12.844;2023-06-05T10:12:30;26.70;36.00
69382;DHT22;56560;50.692;12.844;2023-06-05T10:14:57;27.00;34.50
69382;DHT22;56560;50.692;12.844;2023-06-05T10:17:24;27.00;34.40
69382;DHT22;56560;50.692;12.844;2023-06-05T10:19:51;27.50;34.10
69382;DHT22;56560;50.692;12.844;2023-06-05T10:22:19;27.60;34.00
69382;DHT22;56560;50.692;12.844;2023-06-05T10:24:52;27.50;33.00
69382;DHT22;56560;50.692;12.844;2023-06-05T10:38:26;26.80;33.50
69382;DHT22;56560;50.692;12.844;2023-06-05T10:40:53;27.10;33.90
69382;DHT22;56560;50.692;12.844;2023-06-05T10:43:26;27.90;32.10
69382;DHT22;56560;50.692;12.844;2023-06-05T10:45:52;27.90;31.90
69382;DHT22;56560;50.692;12.844;2023-06-05T10:48:18;28.20;32.30
69382;DHT22;56560;50.692;12.844;2023-06-05T10:50:44;29.00;33.30
69382;DHT22;56560;50.692;12.844;2023-06-05T10:53:41;29.80;30.80
69382;DHT22;56560;50.692;12.844;2023-06-05T10:56:07;29.60;30.90
69382;DHT22;56560;50.692;12.844;2023-06-05T10:58:33;29.10;30.40
69382;DHT22;56560;50.692;12.844;2023-06-05T11:03:53;28.70;30.00
69382;DHT22;56560;50.692;12.844;2023-06-05T11:06:21;28.60;30.40
69382;DHT22;56560;50.692;12.844;2023-06-05T11:09:13;27.90;31.30
69382;DHT22;56560;50.692;12.844;2023-06-05T11:12:01;27.40;32.20
69382;DHT22;56560;50.692;12.844;2023-06-05T11:14:45;27.00;32.60
69382;DHT22;56560;50.692;12.844;2023-06-05T11:17:32;26.80;33.10
69382;DHT22;56560;50.692;12.844;2023-06-05T11:19:59;27.50;32.50
69382;DHT22;56560;50.692;12.844;2023-06-05T11:22:25;27.70;32.30
69382;DHT22;56560;50.692;12.844;2023-06-05T11:25:27;28.10;31.60
69382;DHT22;56560;50.692;12.844;2023-06-05T11:28:01;28.60;31.20
69382;DHT22;56560;50.692;12.844;2023-06-05T11:30:29;28.00;30.90
69382;DHT22;56560;50.692;12.844;2023-06-05T11:33:15;27.90;31.50
69382;DHT22;56560;50.692;12.844;2023-06-05T11:35:43;28.50;31.50
69382;DHT22;56560;50.692;12.844;2023-06-05T11:38:12;29.00;30.80
69382;DHT22;56560;50.692;12.844;2023-06-05T11:40:38;29.80;30.50
69382;DHT22;56560;50.692;12.844;2023-06-05T11:43:07;30.60;29.20
69382;DHT22;56560;50.692;12.844;2023-06-05T11:45:33;31.20;27.70
69382;DHT22;56560;50.692;12.844;2023-06-05T11:50:32;32.20;26.50
69382;DHT22;56560;50.692;12.844;2023-06-05T11:53:10;33.40;26.60
69382;DHT22;56560;50.692;12.844;2023-06-05T11:55:39;34.30;25.30
69382;DHT22;56560;50.692;12.844;2023-06-05T11:58:27;34.60;26.10
69382;DHT22;56560;50.692;12.844;2023-06-05T12:03:44;35.00;24.90
69382;DHT22;56560;50.692;12.844;2023-06-05T12:06:10;35.00;24.70
69382;DHT22;56560;50.692;12.844;2023-06-05T12:08:40;34.90;25.00
69382;DHT22;56560;50.692;12.844;2023-06-05T12:11:25;33.90;25.40
69382;DHT22;56560;50.692;12.844;2023-06-05T12:13:56;31.90;27.30
69382;DHT22;56560;50.692;12.844;2023-06-05T12:18:57;29.70;29.10
69382;DHT22;56560;50.692;12.844;2023-06-05T12:21:24;29.40;29.60
69382;DHT22;56560;50.692;12.844;2023-06-05T12:23:51;30.00;28.90
69382;DHT22;56560;50.692;12.844;2023-06-05T12:26:18;31.40;28.30
69382;DHT22;56560;50.692;12.844;2023-06-05T12:28:44;33.10;26.70
69382;DHT22;56560;50.692;12.844;2023-06-05T12:31:32;34.90;24.70
69382;DHT22;56560;50.692;12.844;2023-06-05T12:33:58;36.00;23.60
69382;DHT22;56560;50.692;12.844;2023-06-05T12:36:24;37.20;22.50
69382;DHT22;56560;50.692;12.844;2023-06-05T12:38:50;38.10;22.30
69382;DHT22;56560;50.692;12.844;2023-06-05T12:41:15;38.20;24.00
69382;DHT22;56560;50.692;12.844;2023-06-05T12:43:41;38.40;23.90
69382;DHT22;56560;50.692;12.844;2023-06-05T12:46:07;38.40;24.50
69382;DHT22;56560;50.692;12.844;2023-06-05T12:48:40;39.20;23.80
69382;DHT22;56560;50.692;12.844;2023-06-05T12:51:05;39.00;23.20
69382;DHT22;56560;50.692;12.844;2023-06-05T12:53:31;38.40;23.70
69382;DHT22;56560;50.692;12.844;2023-06-05T12:55:57;38.30;23.70
69382;DHT22;56560;50.692;12.844;2023-06-05T12:58:22;38.10;24.00
69382;DHT22;56560;50.692;12.844;2023-06-05T13:00:48;37.40;23.90
69382;DHT22;56560;50.692;12.844;2023-06-05T13:03:14;35.70;25.30
69382;DHT22;56560;50.692;12.844;2023-06-05T13:05:39;34.10;26.60
69382;DHT22;56560;50.692;12.844;2023-06-05T13:08:05;32.90;27.80
69382;DHT22;56560;50.692;12.844;2023-06-05T13:10:31;31.90;28.50
69382;DHT22;56560;50.692;12.844;2023-06-05T13:12:57;31.10;29.50
69382;DHT22;56560;50.692;12.844;2023-06-05T13:15:23;30.50;29.50
69382;DHT22;56560;50.692;12.844;2023-06-05T13:17:48;29.90;30.20
69382;DHT22;56560;50.692;12.844;2023-06-05T13:20:15;29.70;30.60
69382;DHT22;56560;50.692;12.844;2023-06-05T13:22:41;29.20;30.90
69382;DHT22;56560;50.692;12.844;2023-06-05T13:25:07;29.00;31.30
69382;DHT22;56560;50.692;12.844;2023-06-05T13:27:34;28.80;31.90
69382;DHT22;56560;50.692;12.844;2023-06-05T13:29:59;29.30;32.10
69382;DHT22;56560;50.692;12.844;2023-06-05T13:32:25;30.30;31.60
69382;DHT22;56560;50.692;12.844;2023-06-05T13:34:51;31.30;29.90
69382;DHT22;56560;50.692;12.844;2023-06-05T13:37:16;32.40;29.20
69382;DHT22;56560;50.692;12.844;2023-06-05T13:39:42;33.50;27.80
69382;DHT22;56560;50.692;12.844;2023-06-05T13:42:08;33.70;27.10
69382;DHT22;56560;50.692;12.844;2023-06-05T13:44:34;33.30;27.50
69382;DHT22;56560;50.692;12.844;2023-06-05T13:46:59;33.10;27.70
69382;DHT22;56560;50.692;12.844;2023-06-05T13:49:31;32.50;27.90
69382;DHT22;56560;50.692;12.844;2023-06-05T13:51:57;31.40;29.20
69382;DHT22;56560;50.692;12.844;2023-06-05T13:54:22;30.80;30.00
69382;DHT22;56560;50.692;12.844;2023-06-05T13:56:48;30.40;29.80
69382;DHT22;56560;50.692;12.844;2023-06-05T13:59:14;29.70;30.60
69382;DHT22;56560;50.692;12.844;2023-06-05T14:01:39;28.80;31.50
69382;DHT22;56560;50.692;12.844;2023-06-05T14:04:05;28.30;32.10
69382;DHT22;56560;50.692;12.844;2023-06-05T14:06:31;28.30;32.20
69382;DHT22;56560;50.692;12.844;2023-06-05T14:08:56;28.30;32.20
69382;DHT22;56560;50.692;12.844;2023-06-05T14:11:22;28.00;32.50
69382;DHT22;56560;50.692;12.844;2023-06-05T14:13:47;27.40;33.90
69382;DHT22;56560;50.692;12.844;2023-06-05T14:16:13;26.90;34.70
69382;DHT22;56560;50.692;12.844;2023-06-05T14:18:39;26.20;35.50
69382;DHT22;56560;50.692;12.844;2023-06-05T14:21:05;25.80;36.10
69382;DHT22;56560;50.692;12.844;2023-06-05T14:23:31;25.60;36.30
69382;DHT22;56560;50.692;12.844;2023-06-05T14:25:56;25.30;37.10
69382;DHT22;56560;50.692;12.844;2023-06-05T14:28:22;25.30;37.60
69382;DHT22;56560;50.692;12.844;2023-06-05T14:30:48;25.20;37.60
69382;DHT22;56560;50.692;12.844;2023-06-05T14:33:14;25.10;37.50
69382;DHT22;56560;50.692;12.844;2023-06-05T14:35:42;25.00;37.60
69382;DHT22;56560;50.692;12.844;2023-06-05T14:38:08;24.70;37.60
69382;DHT22;56560;50.692;12.844;2023-06-05T14:40:38;24.70;37.90
69382;DHT22;56560;50.692;12.844;2023-06-05T14:43:03;24.70;38.10
69382;DHT22;56560;50.692;12.844;2023-06-05T14:45:29;24.80;38.10
69382;DHT22;56560;50.692;12.844;2023-06-05T14:47:55;24.80;38.10
69382;DHT22;56560;50.692;12.844;2023-06-05T14:50:20;24.90;38.10
69382;DHT22;56560;50.692;12.844;2023-06-05T14:52:46;25.20;38.50
69382;DHT22;56560;50.692;12.844;2023-06-05T14:55:11;25.20;37.90
69382;DHT22;56560;50.692;12.844;2023-06-05T14:57:37;25.00;38.20
69382;DHT22;56560;50.692;12.844;2023-06-05T15:00:03;24.80;37.40
69382;DHT22;56560;50.692;12.844;2023-06-05T15:02:30;24.60;38.40
69382;DHT22;56560;50.692;12.844;2023-06-05T15:04:56;24.70;38.10
69382;DHT22;56560;50.692;12.844;2023-06-05T15:07:24;24.60;38.20
69382;DHT22;56560;50.692;12.844;2023-06-05T15:09:50;24.50;38.60
69382;DHT22;56560;50.692;12.844;2023-06-05T15:12:19;24.50;38.70
69382;DHT22;56560;50.692;12.844;2023-06-05T15:14:44;24.50;38.60
69382;DHT22;56560;50.692;12.844;2023-06-05T15:17:10;24.30;39.70
69382;DHT22;56560;50.692;12.844;2023-06-05T15:19:36;24.10;39.50
69382;DHT22;56560;50.692;12.844;2023-06-05T15:22:01;23.90;40.40
69382;DHT22;56560;50.692;12.844;2023-06-05T15:24:27;23.70;40.20
69382;DHT22;56560;50.692;12.844;2023-06-05T15:26:53;23.50;39.40
69382;DHT22;56560;50.692;12.844;2023-06-05T15:29:19;23.30;39.40
69382;DHT22;56560;50.692;12.844;2023-06-05T15:31:45;23.20;39.70
69382;DHT22;56560;50.692;12.844;2023-06-05T15:34:12;23.10;39.60
69382;DHT22;56560;50.692;12.844;2023-06-05T15:36:37;23.00;39.10
69382;DHT22;56560;50.692;12.844;2023-06-05T15:39:03;23.10;39.40
69382;DHT22;56560;50.692;12.844;2023-06-05T15:41:29;23.10;38.80
69382;DHT22;56560;50.692;12.844;2023-06-05T15:43:56;23.00;39.10
69382;DHT22;56560;50.692;12.844;2023-06-05T15:46:22;23.00;39.10
69382;DHT22;56560;50.692;12.844;2023-06-05T15:48:48;23.00;38.80
69382;DHT22;56560;50.692;12.844;2023-06-05T15:51:15;23.00;38.90
69382;DHT22;56560;50.692;12.844;2023-06-05T15:53:40;23.00;39.20
69382;DHT22;56560;50.692;12.844;2023-06-05T15:56:06;23.10;39.50
69382;DHT22;56560;50.692;12.844;2023-06-05T15:58:31;23.20;39.50
69382;DHT22;56560;50.692;12.844;2023-06-05T16:00:57;23.20;39.10
69382;DHT22;56560;50.692;12.844;2023-06-05T16:03:23;23.20;38.80
69382;DHT22;56560;50.692;12.844;2023-06-05T16:05:49;23.20;40.10
69382;DHT22;56560;50.692;12.844;2023-06-05T16:08:14;23.20;39.10
69382;DHT22;56560;50.692;12.844;2023-06-05T16:10:42;23.10;38.90
69382;DHT22;56560;50.692;12.844;2023-06-05T16:13:08;23.10;39.20
69382;DHT22;56560;50.692;12.844;2023-06-05T16:15:36;23.10;39.20
69382;DHT22;56560;50.692;12.844;2023-06-05T16:18:04;23.10;39.30
69382;DHT22;56560;50.692;12.844;2023-06-05T16:20:30;23.00;40.90
69382;DHT22;56560;50.692;12.844;2023-06-05T16:22:56;22.60;41.80
69382;DHT22;56560;50.692;12.844;2023-06-05T16:25:21;22.40;43.10
69382;DHT22;56560;50.692;12.844;2023-06-05T16:27:47;22.40;43.90
69382;DHT22;56560;50.692;12.844;2023-06-05T16:30:13;22.40;43.80
69382;DHT22;56560;50.692;12.844;2023-06-05T16:32:38;22.40;44.30
69382;DHT22;56560;50.692;12.844;2023-06-05T16:35:04;22.00;45.10
69382;DHT22;56560;50.692;12.844;2023-06-05T16:37:31;21.90;45.40
69382;DHT22;56560;50.692;12.844;2023-06-05T16:39:59;21.70;46.20
69382;DHT22;56560;50.692;12.844;2023-06-05T16:42:26;21.60;46.40
69382;DHT22;56560;50.692;12.844;2023-06-05T16:44:52;21.60;46.90
69382;DHT22;56560;50.692;12.844;2023-06-05T16:47:18;21.50;47.60
69382;DHT22;56560;50.692;12.844;2023-06-05T16:49:43;21.30;48.40
69382;DHT22;56560;50.692;12.844;2023-06-05T16:52:09;21.00;49.30
69382;DHT22;56560;50.692;12.844;2023-06-05T16:54:34;20.90;49.50
69382;DHT22;56560;50.692;12.844;2023-06-05T16:57:01;20.80;49.80
69382;DHT22;56560;50.692;12.844;2023-06-05T16:59:28;20.60;50.20
69382;DHT22;56560;50.692;12.844;2023-06-05T17:01:53;20.50;51.00
69382;DHT22;56560;50.692;12.844;2023-06-05T17:04:19;20.20;51.40
69382;DHT22;56560;50.692;12.844;2023-06-05T17:06:45;20.30;51.30
69382;DHT22;56560;50.692;12.844;2023-06-05T17:09:11;20.40;50.80
69382;DHT22;56560;50.692;12.844;2023-06-05T17:11:38;20.40;51.50
69382;DHT22;56560;50.692;12.844;2023-06-05T17:14:03;20.20;52.00
69382;DHT22;56560;50.692;12.844;2023-06-05T17:16:29;20.00;52.60
69382;DHT22;56560;50.692;12.844;2023-06-05T17:18:55;19.90;52.80
69382;DHT22;56560;50.692;12.844;2023-06-05T17:21:20;19.90;52.80
69382;DHT22;56560;50.692;12.844;2023-06-05T17:23:46;19.90;53.40
69382;DHT22;56560;50.692;12.844;2023-06-05T17:26:13;19.70;53.80
69382;DHT22;56560;50.692;12.844;2023-06-05T17:28:38;19.50;54.30
69382;DHT22;56560;50.692;12.844;2023-06-05T17:31:04;19.50;54.50
69382;DHT22;56560;50.692;12.844;2023-06-05T17:33:31;19.60;54.10
69382;DHT22;56560;50.692;12.844;2023-06-05T17:35:57;19.70;53.70
69382;DHT22;56560;50.692;12.844;2023-06-05T17:38:22;19.80;53.70
69382;DHT22;56560;50.692;12.844;2023-06-05T17:40:48;19.70;54.00
69382;DHT22;56560;50.692;12.844;2023-06-05T17:43:14;19.60;54.40
69382;DHT22;56560;50.692;12.844;2023-06-05T17:45:40;19.40;54.50
69382;DHT22;56560;50.692;12.844;2023-06-05T17:48:07;19.50;54.30
69382;DHT22;56560;50.692;12.844;2023-06-05T17:50:33;19.50;54.20
69382;DHT22;56560;50.692;12.844;2023-06-05T17:52:58;19.50;54.20
69382;DHT22;56560;50.692;12.844;2023-06-05T17:55:24;19.50;54.00
69382;DHT22;56560;50.692;12.844;2023-06-05T17:57:51;19.40;54.30
69382;DHT22;56560;50.692;12.844;2023-06-05T18:00:26;19.30;54.20
69382;DHT22;56560;50.692;12.844;2023-06-05T18:02:52;19.30;54.10
69382;DHT22;56560;50.692;12.844;2023-06-05T18:05:18;19.40;53.90
69382;DHT22;56560;50.692;12.844;2023-06-05T18:07:43;19.40;54.40
69382;DHT22;56560;50.692;12.844;2023-06-05T18:10:10;19.50;53.70
69382;DHT22;56560;50.692;12.844;2023-06-05T18:12:36;19.30;53.80
69382;DHT22;56560;50.692;12.844;2023-06-05T18:15:02;19.00;54.60
69382;DHT22;56560;50.692;12.844;2023-06-05T18:17:28;19.00;54.20
69382;DHT22;56560;50.692;12.844;2023-06-05T18:19:55;19.10;54.10
69382;DHT22;56560;50.692;12.844;2023-06-05T18:22:21;19.20;53.80
69382;DHT22;56560;50.692;12.844;2023-06-05T18:24:47;19.10;53.70
69382;DHT22;56560;50.692;12.844;2023-06-05T18:27:12;19.10;53.90
69382;DHT22;56560;50.692;12.844;2023-06-05T18:29:38;19.00;54.10
69382;DHT22;56560;50.692;12.844;2023-06-05T18:32:07;18.80;54.50
69382;DHT22;56560;50.692;12.844;2023-06-05T18:34:34;18.60;55.30
69382;DHT22;56560;50.692;12.844;2023-06-05T18:37:01;18.60;55.50
69382;DHT22;56560;50.692;12.844;2023-06-05T18:39:27;18.60;55.60
69382;DHT22;56560;50.692;12.844;2023-06-05T18:41:52;18.70;55.30
69382;DHT22;56560;50.692;12.844;2023-06-05T18:44:18;18.70;55.40
69382;DHT22;56560;50.692;12.844;2023-06-05T18:46:44;18.80;54.90
69382;DHT22;56560;50.692;12.844;2023-06-05T18:49:10;18.90;55.30
69382;DHT22;56560;50.692;12.844;2023-06-05T18:51:35;18.90;54.60
69382;DHT22;56560;50.692;12.844;2023-06-05T18:54:04;18.90;54.40
69382;DHT22;56560;50.692;12.844;2023-06-05T18:56:30;18.70;54.30
69382;DHT22;56560;50.692;12.844;2023-06-05T18:58:56;18.60;54.20
69382;DHT22;56560;50.692;12.844;2023-06-05T19:01:21;18.50;54.50
69382;DHT22;56560;50.692;12.844;2023-06-05T19:03:47;18.30;54.80
69382;DHT22;56560;50.692;12.844;2023-06-05T19:06:13;18.20;55.10
69382;DHT22;56560;50.692;12.844;2023-06-05T19:08:38;18.00;55.60
69382;DHT22;56560;50.692;12.844;2023-06-05T19:11:05;17.90;56.00
69382;DHT22;56560;50.692;12.844;2023-06-05T19:13:30;17.80;56.80
69382;DHT22;56560;50.692;12.844;2023-06-05T19:15:56;17.50;57.50
69382;DHT22;56560;50.692;12.844;2023-06-05T19:18:22;17.40;57.90
69382;DHT22;56560;50.692;12.844;2023-06-05T19:20:48;17.30;58.40
69382;DHT22;56560;50.692;12.844;2023-06-05T19:23:13;17.20;58.80
69382;DHT22;56560;50.692;12.844;2023-06-05T19:25:39;17.10;59.10
69382;DHT22;56560;50.692;12.844;2023-06-05T19:28:05;17.00;59.60
69382;DHT22;56560;50.692;12.844;2023-06-05T19:30:30;16.90;60.00
69382;DHT22;56560;50.692;12.844;2023-06-05T19:32:56;16.90;59.90
69382;DHT22;56560;50.692;12.844;2023-06-05T19:35:22;16.90;60.00
69382;DHT22;56560;50.692;12.844;2023-06-05T19:37:48;16.90;59.80
69382;DHT22;56560;50.692;12.844;2023-06-05T19:40:14;16.90;60.00
69382;DHT22;56560;50.692;12.844;2023-06-05T19:42:40;16.90;60.20
69382;DHT22;56560;50.692;12.844;2023-06-05T19:45:10;16.90;60.80
69382;DHT22;56560;50.692;12.844;2023-06-05T19:47:37;16.80;62.90
69382;DHT22;56560;50.692;12.844;2023-06-05T19:50:03;16.70;62.40
69382;DHT22;56560;50.692;12.844;2023-06-05T19:52:30;16.50;62.90
69382;DHT22;56560;50.692;12.844;2023-06-05T19:54:56;16.40;63.80
69382;DHT22;56560;50.692;12.844;2023-06-05T19:57:25;16.40;64.20
69382;DHT22;56560;50.692;12.844;2023-06-05T19:59:50;16.30;64.20
69382;DHT22;56560;50.692;12.844;2023-06-05T20:02:16;16.20;64.70
69382;DHT22;56560;50.692;12.844;2023-06-05T20:04:42;16.20;65.30
69382;DHT22;56560;50.692;12.844;2023-06-05T20:07:08;16.10;65.70
69382;DHT22;56560;50.692;12.844;2023-06-05T20:09:33;16.00;65.80
69382;DHT22;56560;50.692;12.844;2023-06-05T20:11:59;16.00;66.10
69382;DHT22;56560;50.692;12.844;2023-06-05T20:14:25;16.10;66.80
69382;DHT22;56560;50.692;12.844;2023-06-05T20:16:50;16.00;67.10
69382;DHT22;56560;50.692;12.844;2023-06-05T20:19:16;16.00;66.50
69382;DHT22;56560;50.692;12.844;2023-06-05T20:21:43;16.00;66.90
69382;DHT22;56560;50.692;12.844;2023-06-05T20:24:09;16.00;66.90
69382;DHT22;56560;50.692;12.844;2023-06-05T20:26:34;15.90;67.10
69382;DHT22;56560;50.692;12.844;2023-06-05T20:29:00;15.90;66.80
69382;DHT22;56560;50.692;12.844;2023-06-05T20:31:26;15.90;67.10
69382;DHT22;56560;50.692;12.844;2023-06-05T20:33:52;16.00;66.50
69382;DHT22;56560;50.692;12.844;2023-06-05T20:36:23;16.00;66.30
69382;DHT22;56560;50.692;12.844;2023-06-05T20:38:48;16.00;66.00
69382;DHT22;56560;50.692;12.844;2023-06-05T20:41:16;16.00;66.30
69382;DHT22;56560;50.692;12.844;2023-06-05T20:43:43;16.00;66.50
69382;DHT22;56560;50.692;12.844;2023-06-05T20:46:11;16.00;66.60